sensor_id;sensor_type;location;lat;lon;timestamp;pressure;altitude;pressure_sealevel;temperature
79756;BMP280;69239;50.678;12.280;2023-06-04T00:02:18;97982.50;;;9.94
79756;BMP280;69239;50.678;12.280;2023-06-04T00:04:43;97979.44;;;9.87
79756;BMP280;69239;50.678;12.280;2023-06-04T00:07:09;97975.94;;;9.78
79756;BMP280;69239;50.678;12.280;2023-06-04T00:09:34;97972.72;;;9.67
79756;BMP280;69239;50.678;12.280;2023-06-04T00:11:59;97975.50;;;9.57
79756;BMP280;69239;50.678;12.280;2023-06-04T00:14:25;97969.06;;;9.49
79756;BMP280;69239;50.678;12.280;2023-06-04T00:16:50;97962.31;;;9.43
79756;BMP280;69239;50.678;12.280;2023-06-04T00:19:16;97964.53;;;9.36
79756;BMP280;69239;50.678;12.280;2023-06-04T00:21:41;97960.09;;;9.36
79756;BMP280;69239;50.678;12.280;2023-06-04T00:24:06;97956.66;;;9.36
79756;BMP280;69239;50.678;12.280;2023-06-04T00:26:33;97950.91;;;9.34
79756;BMP280;69239;50.678;12.280;2023-06-04T00:28:58;97954.84;;;9.36
79756;BMP280;69239;50.678;12.280;2023-06-04T00:31:23;97955.38;;;9.33
79756;BMP280;69239;50.678;12.280;2023-06-04T00:33:49;97950.75;;;9.30
79756;BMP280;69239;50.678;12.280;2023-06-04T00:36:15;97953.63;;;9.29
79756;BMP280;69239;50.678;12.280;2023-06-04T00:38:40;97948.94;;;9.26
79756;BMP280;69239;50.678;12.280;2023-06-04T00:41:05;97954.22;;;9.26
79756;BMP280;69239;50.678;12.280;2023-06-04T00:43:31;97946.91;;;9.23
79756;BMP280;69239;50.678;12.280;2023-06-04T00:45:58;97955.84;;;9.22
79756;BMP280;69239;50.678;12.280;2023-06-04T00:48:23;97955.16;;;9.16
79756;BMP280;69239;50.678;12.280;2023-06-04T00:50:53;97939.78;;;9.10
79756;BMP280;69239;50.678;12.280;2023-06-04T00:53:18;97950.28;;;9.10
79756;BMP280;69239;50.678;12.280;2023-06-04T00:55:44;97942.75;;;9.03
79756;BMP280;69239;50.678;12.280;2023-06-04T00:58:10;97940.97;;;8.98
79756;BMP280;69239;50.678;12.280;2023-06-04T01:00:36;97943.38;;;8.95
79756;BMP280;69239;50.678;12.280;2023-06-04T01:03:07;97945.88;;;8.86
79756;BMP280;69239;50.678;12.280;2023-06-04T01:08:38;97942.94;;;8.74
79756;BMP280;69239;50.678;12.280;2023-06-04T01:11:08;97945.38;;;8.65
79756;BMP280;69239;50.678;12.280;2023-06-04T01:13:33;97942.31;;;8.58
79756;BMP280;69239;50.678;12.280;2023-06-04T01:15:58;97937.22;;;8.48
79756;BMP280;69239;50.678;12.280;2023-06-04T01:18:27;97941.47;;;8.44
79756;BMP280;69239;50.678;12.280;2023-06-04T01:21:12;97936.06;;;8.35
79756;BMP280;69239;50.678;12.280;2023-06-04T01:23:46;97940.81;;;8.33
79756;BMP280;69239;50.678;12.280;2023-06-04T01:26:14;97942.97;;;8.31
79756;BMP280;69239;50.678;12.280;2023-06-04T01:28:40;97936.97;;;8.26
79756;BMP280;69239;50.678;12.280;2023-06-04T01:31:06;97937.75;;;8.26
79756;BMP280;69239;50.678;12.280;2023-06-04T01:33:35;97934.41;;;8.21
79756;BMP280;69239;50.678;12.280;2023-06-04T01:36:01;97943.34;;;8.20
79756;BMP280;69239;50.678;12.280;2023-06-04T01:38:26;97936.00;;;8.17
79756;BMP280;69239;50.678;12.280;2023-06-04T01:40:52;97932.16;;;8.09
79756;BMP280;69239;50.678;12.280;2023-06-04T01:43:21;97944.75;;;8.12
79756;BMP280;69239;50.678;12.280;2023-06-04T01:45:47;97946.91;;;8.05
79756;BMP280;69239;50.678;12.280;2023-06-04T01:48:13;97953.28;;;7.99
79756;BMP280;69239;50.678;12.280;2023-06-04T01:50:38;97944.94;;;7.92
79756;BMP280;69239;50.678;12.280;2023-06-04T01:53:04;97949.19;;;7.88
79756;BMP280;69239;50.678;12.280;2023-06-04T01:55:29;97953.69;;;7.82
79756;BMP280;69239;50.678;12.280;2023-06-04T01:57:58;97956.13;;;7.73
79756;BMP280;69239;50.678;12.280;2023-06-04T02:00:26;97953.06;;;7.66
79756;BMP280;69239;50.678;12.280;2023-06-04T02:02:51;97951.53;;;7.60
79756;BMP280;69239;50.678;12.280;2023-06-04T02:05:18;97955.00;;;7.56
79756;BMP280;69239;50.678;12.280;2023-06-04T02:07:45;97956.88;;;7.50
79756;BMP280;69239;50.678;12.280;2023-06-04T02:10:15;97965.78;;;7.49
79756;BMP280;69239;50.678;12.280;2023-06-04T02:13:02;97962.94;;;7.45
79756;BMP280;69239;50.678;12.280;2023-06-04T02:15:29;97957.19;;;7.43
79756;BMP280;69239;50.678;12.280;2023-06-04T02:17:56;97960.09;;;7.42
79756;BMP280;69239;50.678;12.280;2023-06-04T02:20:25;97963.75;;;7.41
79756;BMP280;69239;50.678;12.280;2023-06-04T02:22:50;97959.06;;;7.38
79756;BMP280;69239;50.678;12.280;2023-06-04T02:25:16;97964.28;;;7.38
79756;BMP280;69239;50.678;12.280;2023-06-04T02:27:42;97955.13;;;7.35
79756;BMP280;69239;50.678;12.280;2023-06-04T02:30:07;97954.13;;;7.31
79756;BMP280;69239;50.678;12.280;2023-06-04T02:32:33;97953.06;;;7.32
79756;BMP280;69239;50.678;12.280;2023-06-04T02:35:01;97952.09;;;7.23
79756;BMP280;69239;50.678;12.280;2023-06-04T02:37:26;97961.78;;;7.22
79756;BMP280;69239;50.678;12.280;2023-06-04T02:39:52;97957.63;;;7.16
79756;BMP280;69239;50.678;12.280;2023-06-04T02:42:17;97960.81;;;7.13
79756;BMP280;69239;50.678;12.280;2023-06-04T02:44:42;97953.00;;;7.08
79756;BMP280;69239;50.678;12.280;2023-06-04T02:47:08;97962.97;;;7.06
79756;BMP280;69239;50.678;12.280;2023-06-04T02:49:33;97955.91;;;7.02
79756;BMP280;69239;50.678;12.280;2023-06-04T02:51:58;97962.19;;;7.01
79756;BMP280;69239;50.678;12.280;2023-06-04T02:54:24;97962.47;;;6.99
79756;BMP280;69239;50.678;12.280;2023-06-04T02:56:49;97966.69;;;6.95
79756;BMP280;69239;50.678;12.280;2023-06-04T02:59:15;97970.13;;;6.90
79756;BMP280;69239;50.678;12.280;2023-06-04T03:01:40;97965.72;;;6.81
79756;BMP280;69239;50.678;12.280;2023-06-04T03:04:06;97978.81;;;6.76
79756;BMP280;69239;50.678;12.280;2023-06-04T03:06:36;97978.03;;;6.75
79756;BMP280;69239;50.678;12.280;2023-06-04T03:09:04;97979.66;;;6.71
79756;BMP280;69239;50.678;12.280;2023-06-04T03:11:30;97980.94;;;6.69
79756;BMP280;69239;50.678;12.280;2023-06-04T03:13:55;97976.00;;;6.62
79756;BMP280;69239;50.678;12.280;2023-06-04T03:16:21;97981.47;;;6.66
79756;BMP280;69239;50.678;12.280;2023-06-04T03:18:47;97978.88;;;6.66
79756;BMP280;69239;50.678;12.280;2023-06-04T03:21:12;97979.91;;;6.65
79756;BMP280;69239;50.678;12.280;2023-06-04T03:23:38;97983.03;;;6.61
79756;BMP280;69239;50.678;12.280;2023-06-04T03:26:04;97985.16;;;6.59
79756;BMP280;69239;50.678;12.280;2023-06-04T03:28:31;97986.22;;;6.53
79756;BMP280;69239;50.678;12.280;2023-06-04T03:30:57;97982.06;;;6.47
79756;BMP280;69239;50.678;12.280;2023-06-04T03:33:23;97990.19;;;6.41
79756;BMP280;69239;50.678;12.280;2023-06-04T03:35:52;97987.34;;;6.37
79756;BMP280;69239;50.678;12.280;2023-06-04T03:38:24;97991.50;;;6.33
79756;BMP280;69239;50.678;12.280;2023-06-04T03:40:49;97988.41;;;6.31
79756;BMP280;69239;50.678;12.280;2023-06-04T03:43:15;97992.63;;;6.27
79756;BMP280;69239;50.678;12.280;2023-06-04T03:45:41;97990.25;;;6.25
79756;BMP280;69239;50.678;12.280;2023-06-04T03:48:07;97987.88;;;6.19
79756;BMP280;69239;50.678;12.280;2023-06-04T03:50:32;97982.72;;;6.14
79756;BMP280;69239;50.678;12.280;2023-06-04T03:52:57;97987.41;;;6.17
79756;BMP280;69239;50.678;12.280;2023-06-04T03:55:23;97980.59;;;6.16
79756;BMP280;69239;50.678;12.280;2023-06-04T03:57:49;97977.72;;;6.17
79756;BMP280;69239;50.678;12.280;2023-06-04T04:00:15;97982.16;;;6.22
79756;BMP280;69239;50.678;12.280;2023-06-04T04:02:41;97982.66;;;6.24
79756;BMP280;69239;50.678;12.280;2023-06-04T04:05:06;97982.66;;;6.24
79756;BMP280;69239;50.678;12.280;2023-06-04T04:07:32;97986.84;;;6.25
79756;BMP280;69239;50.678;12.280;2023-06-04T04:09:57;97987.91;;;6.29
79756;BMP280;69239;50.678;12.280;2023-06-04T04:12:22;97992.59;;;6.32
79756;BMP280;69239;50.678;12.280;2023-06-04T04:14:48;97981.84;;;6.33
79756;BMP280;69239;50.678;12.280;2023-06-04T04:17:14;97992.56;;;6.37
79756;BMP280;69239;50.678;12.280;2023-06-04T04:19:39;97988.13;;;6.38
79756;BMP280;69239;50.678;12.280;2023-06-04T04:22:05;97990.75;;;6.43
79756;BMP280;69239;50.678;12.280;2023-06-04T04:24:31;97994.66;;;6.45
79756;BMP280;69239;50.678;12.280;2023-06-04T04:26:59;97986.28;;;6.43
79756;BMP280;69239;50.678;12.280;2023-06-04T04:29:25;97987.84;;;6.44
79756;BMP280;69239;50.678;12.280;2023-06-04T04:31:54;97986.28;;;6.43
79756;BMP280;69239;50.678;12.280;2023-06-04T04:34:25;97992.03;;;6.45
79756;BMP280;69239;50.678;12.280;2023-06-04T04:36:50;97983.88;;;6.47
79756;BMP280;69239;50.678;12.280;2023-06-04T04:39:27;97984.16;;;6.50
79756;BMP280;69239;50.678;12.280;2023-06-04T04:41:54;97994.56;;;6.60
79756;BMP280;69239;50.678;12.280;2023-06-04T04:44:19;97993.78;;;6.65
79756;BMP280;69239;50.678;12.280;2023-06-04T04:46:45;97991.94;;;6.71
79756;BMP280;69239;50.678;12.280;2023-06-04T04:49:10;97994.25;;;6.77
79756;BMP280;69239;50.678;12.280;2023-06-04T04:51:35;97993.72;;;6.85
79756;BMP280;69239;50.678;12.280;2023-06-04T04:54:02;97994.97;;;6.88
79756;BMP280;69239;50.678;12.280;2023-06-04T04:56:28;97988.16;;;6.92
79756;BMP280;69239;50.678;12.280;2023-06-04T04:58:54;97997.00;;;7.06
79756;BMP280;69239;50.678;12.280;2023-06-04T05:01:20;98002.41;;;7.15
79756;BMP280;69239;50.678;12.280;2023-06-04T05:03:45;97998.75;;;7.21
79756;BMP280;69239;50.678;12.280;2023-06-04T05:06:11;97999.47;;;7.27
79756;BMP280;69239;50.678;12.280;2023-06-04T05:08:36;97999.38;;;7.37
79756;BMP280;69239;50.678;12.280;2023-06-04T05:11:02;98003.56;;;7.43
79756;BMP280;69239;50.678;12.280;2023-06-04T05:13:27;98002.44;;;7.54
79756;BMP280;69239;50.678;12.280;2023-06-04T05:15:52;98006.53;;;7.65
79756;BMP280;69239;50.678;12.280;2023-06-04T05:18:18;97998.06;;;7.73
79756;BMP280;69239;50.678;12.280;2023-06-04T05:20:47;97999.53;;;7.85
79756;BMP280;69239;50.678;12.280;2023-06-04T05:23:12;97997.38;;;7.92
79756;BMP280;69239;50.678;12.280;2023-06-04T05:25:38;98006.72;;;8.03
79756;BMP280;69239;50.678;12.280;2023-06-04T05:28:04;97997.72;;;8.09
79756;BMP280;69239;50.678;12.280;2023-06-04T05:30:31;97999.19;;;8.20
79756;BMP280;69239;50.678;12.280;2023-06-04T05:32:56;98010.09;;;8.32
79756;BMP280;69239;50.678;12.280;2023-06-04T05:35:22;98012.59;;;8.42
79756;BMP280;69239;50.678;12.280;2023-06-04T05:37:47;98008.28;;;8.52
79756;BMP280;69239;50.678;12.280;2023-06-04T05:40:18;98015.44;;;8.65
79756;BMP280;69239;50.678;12.280;2023-06-04T05:42:44;98011.94;;;8.74
79756;BMP280;69239;50.678;12.280;2023-06-04T05:45:09;98021.53;;;8.84
79756;BMP280;69239;50.678;12.280;2023-06-04T05:47:35;98014.56;;;8.93
79756;BMP280;69239;50.678;12.280;2023-06-04T05:50:00;98012.13;;;9.02
79756;BMP280;69239;50.678;12.280;2023-06-04T05:52:26;98017.41;;;9.16
79756;BMP280;69239;50.678;12.280;2023-06-04T05:54:51;98014.34;;;9.27
79756;BMP280;69239;50.678;12.280;2023-06-04T05:57:17;98017.63;;;9.38
79756;BMP280;69239;50.678;12.280;2023-06-04T05:59:42;98001.72;;;9.43
79756;BMP280;69239;50.678;12.280;2023-06-04T06:02:08;98008.81;;;9.61
79756;BMP280;69239;50.678;12.280;2023-06-04T06:04:33;98011.00;;;9.73
79756;BMP280;69239;50.678;12.280;2023-06-04T06:06:59;98011.97;;;9.91
79756;BMP280;69239;50.678;12.280;2023-06-04T06:09:24;98018.03;;;10.05
79756;BMP280;69239;50.678;12.280;2023-06-04T06:11:49;98021.66;;;10.23
79756;BMP280;69239;50.678;12.280;2023-06-04T06:14:15;98028.47;;;10.38
79756;BMP280;69239;50.678;12.280;2023-06-04T06:16:40;98019.22;;;10.54
79756;BMP280;69239;50.678;12.280;2023-06-04T06:19:05;98031.47;;;10.72
79756;BMP280;69239;50.678;12.280;2023-06-04T06:21:31;98026.34;;;10.89
79756;BMP280;69239;50.678;12.280;2023-06-04T06:23:56;98023.09;;;11.06
79756;BMP280;69239;50.678;12.280;2023-06-04T06:26:22;98030.53;;;11.26
79756;BMP280;69239;50.678;12.280;2023-06-04T06:28:47;98044.47;;;11.49
79756;BMP280;69239;50.678;12.280;2023-06-04T06:31:13;98030.31;;;11.68
79756;BMP280;69239;50.678;12.280;2023-06-04T06:33:38;98036.13;;;11.87
79756;BMP280;69239;50.678;12.280;2023-06-04T06:36:07;98037.50;;;12.07
79756;BMP280;69239;50.678;12.280;2023-06-04T06:38:33;98040.78;;;12.30
79756;BMP280;69239;50.678;12.280;2023-06-04T06:40:58;98052.34;;;12.51
79756;BMP280;69239;50.678;12.280;2023-06-04T06:43:23;98050.22;;;12.70
79756;BMP280;69239;50.678;12.280;2023-06-04T06:45:49;98048.38;;;12.88
79756;BMP280;69239;50.678;12.280;2023-06-04T06:48:14;98052.44;;;13.03
79756;BMP280;69239;50.678;12.280;2023-06-04T06:50:39;98048.97;;;13.19
79756;BMP280;69239;50.678;12.280;2023-06-04T06:53:05;98054.72;;;13.39
79756;BMP280;69239;50.678;12.280;2023-06-04T06:55:30;98053.91;;;13.56
79756;BMP280;69239;50.678;12.280;2023-06-04T06:57:56;98056.19;;;13.74
79756;BMP280;69239;50.678;12.280;2023-06-04T07:00:21;98063.88;;;13.97
79756;BMP280;69239;50.678;12.280;2023-06-04T07:02:46;98052.41;;;14.13
79756;BMP280;69239;50.678;12.280;2023-06-04T07:05:13;98052.38;;;14.31
79756;BMP280;69239;50.678;12.280;2023-06-04T07:07:40;98056.69;;;14.56
79756;BMP280;69239;50.678;12.280;2023-06-04T07:10:05;98061.22;;;14.76
79756;BMP280;69239;50.678;12.280;2023-06-04T07:12:31;98056.25;;;14.96
79756;BMP280;69239;50.678;12.280;2023-06-04T07:14:56;98055.91;;;15.18
79756;BMP280;69239;50.678;12.280;2023-06-04T07:17:22;98051.09;;;15.44
79756;BMP280;69239;50.678;12.280;2023-06-04T07:19:47;98048.59;;;15.72
79756;BMP280;69239;50.678;12.280;2023-06-04T07:22:12;98054.44;;;16.02
79756;BMP280;69239;50.678;12.280;2023-06-04T07:24:41;98053.78;;;16.30
79756;BMP280;69239;50.678;12.280;2023-06-04T07:27:13;98050.63;;;16.52
79756;BMP280;69239;50.678;12.280;2023-06-04T07:29:39;98051.94;;;16.70
79756;BMP280;69239;50.678;12.280;2023-06-04T07:32:05;98043.63;;;16.87
79756;BMP280;69239;50.678;12.280;2023-06-04T07:34:31;98053.56;;;17.03
79756;BMP280;69239;50.678;12.280;2023-06-04T07:36:56;98062.34;;;17.19
79756;BMP280;69239;50.678;12.280;2023-06-04T07:39:22;98061.59;;;17.34
79756;BMP280;69239;50.678;12.280;2023-06-04T07:41:47;98046.31;;;17.47
79756;BMP280;69239;50.678;12.280;2023-06-04T07:44:12;98051.38;;;17.68
79756;BMP280;69239;50.678;12.280;2023-06-04T07:46:38;98048.34;;;17.85
79756;BMP280;69239;50.678;12.280;2023-06-04T07:49:03;98053.22;;;17.98
79756;BMP280;69239;50.678;12.280;2023-06-04T07:51:28;98059.84;;;18.05
79756;BMP280;69239;50.678;12.280;2023-06-04T07:53:54;98055.31;;;18.05
79756;BMP280;69239;50.678;12.280;2023-06-04T07:56:19;98063.44;;;18.12
79756;BMP280;69239;50.678;12.280;2023-06-04T07:58:44;98056.59;;;18.30
79756;BMP280;69239;50.678;12.280;2023-06-04T08:01:10;98053.97;;;18.50
79756;BMP280;69239;50.678;12.280;2023-06-04T08:03:35;98057.19;;;18.59
79756;BMP280;69239;50.678;12.280;2023-06-04T08:06:02;98053.66;;;18.74
79756;BMP280;69239;50.678;12.280;2023-06-04T08:08:27;98057.47;;;18.92
79756;BMP280;69239;50.678;12.280;2023-06-04T08:10:53;98055.84;;;19.11
79756;BMP280;69239;50.678;12.280;2023-06-04T08:13:18;98055.34;;;19.24
79756;BMP280;69239;50.678;12.280;2023-06-04T08:15:43;98055.63;;;19.42
79756;BMP280;69239;50.678;12.280;2023-06-04T08:18:09;98050.53;;;19.56
79756;BMP280;69239;50.678;12.280;2023-06-04T08:20:34;98049.88;;;19.66
79756;BMP280;69239;50.678;12.280;2023-06-04T08:23:00;98054.75;;;19.84
79756;BMP280;69239;50.678;12.280;2023-06-04T08:25:25;98049.28;;;20.03
79756;BMP280;69239;50.678;12.280;2023-06-04T08:27:51;98052.28;;;20.31
79756;BMP280;69239;50.678;12.280;2023-06-04T08:30:16;98051.78;;;20.52
79756;BMP280;69239;50.678;12.280;2023-06-04T08:32:41;98047.38;;;20.67
79756;BMP280;69239;50.678;12.280;2023-06-04T08:35:07;98046.38;;;20.82
79756;BMP280;69239;50.678;12.280;2023-06-04T08:37:33;98053.13;;;21.06
79756;BMP280;69239;50.678;12.280;2023-06-04T08:39:58;98050.19;;;21.21
79756;BMP280;69239;50.678;12.280;2023-06-04T08:42:30;98057.53;;;21.32
79756;BMP280;69239;50.678;12.280;2023-06-04T08:44:58;98053.44;;;21.45
79756;BMP280;69239;50.678;12.280;2023-06-04T08:47:25;98055.03;;;21.56
79756;BMP280;69239;50.678;12.280;2023-06-04T08:49:55;98049.06;;;21.74
79756;BMP280;69239;50.678;12.280;2023-06-04T08:52:23;98063.72;;;21.94
79756;BMP280;69239;50.678;12.280;2023-06-04T08:54:50;98055.31;;;22.02
79756;BMP280;69239;50.678;12.280;2023-06-04T08:57:18;98057.63;;;22.00
79756;BMP280;69239;50.678;12.280;2023-06-04T08:59:47;98064.56;;;22.09
79756;BMP280;69239;50.678;12.280;2023-06-04T09:02:14;98050.78;;;22.21
79756;BMP280;69239;50.678;12.280;2023-06-04T09:04:40;98062.34;;;22.32
79756;BMP280;69239;50.678;12.280;2023-06-04T09:07:06;98055.09;;;22.43
79756;BMP280;69239;50.678;12.280;2023-06-04T09:09:36;98049.38;;;22.62
79756;BMP280;69239;50.678;12.280;2023-06-04T09:12:03;98055.56;;;22.88
79756;BMP280;69239;50.678;12.280;2023-06-04T09:14:30;98055.63;;;23.12
79756;BMP280;69239;50.678;12.280;2023-06-04T09:16:56;98049.44;;;23.37
79756;BMP280;69239;50.678;12.280;2023-06-04T09:19:24;98054.75;;;23.58
79756;BMP280;69239;50.678;12.280;2023-06-04T09:24:22;98056.22;;;23.87
79756;BMP280;69239;50.678;12.280;2023-06-04T09:26:48;98048.50;;;24.00
79756;BMP280;69239;50.678;12.280;2023-06-04T09:29:14;98042.69;;;24.09
79756;BMP280;69239;50.678;12.280;2023-06-04T09:31:39;98044.25;;;24.06
79756;BMP280;69239;50.678;12.280;2023-06-04T09:34:05;98051.59;;;23.95
79756;BMP280;69239;50.678;12.280;2023-06-04T09:36:34;98046.66;;;23.72
79756;BMP280;69239;50.678;12.280;2023-06-04T09:39:02;98047.84;;;23.61
79756;BMP280;69239;50.678;12.280;2023-06-04T09:41:28;98049.78;;;23.60
79756;BMP280;69239;50.678;12.280;2023-06-04T09:44:01;98049.38;;;23.69
79756;BMP280;69239;50.678;12.280;2023-06-04T09:46:28;98046.66;;;23.76
79756;BMP280;69239;50.678;12.280;2023-06-04T09:49:03;98051.63;;;23.81
79756;BMP280;69239;50.678;12.280;2023-06-04T09:51:29;98054.69;;;23.93
79756;BMP280;69239;50.678;12.280;2023-06-04T09:54:00;98046.19;;;24.02
79756;BMP280;69239;50.678;12.280;2023-06-04T09:56:26;98051.59;;;23.95
79756;BMP280;69239;50.678;12.280;2023-06-04T09:58:58;98060.09;;;23.90
79756;BMP280;69239;50.678;12.280;2023-06-04T10:01:26;98060.09;;;23.79
79756;BMP280;69239;50.678;12.280;2023-06-04T10:03:53;98052.44;;;23.71
79756;BMP280;69239;50.678;12.280;2023-06-04T10:06:19;98057.78;;;23.85
79756;BMP280;69239;50.678;12.280;2023-06-04T10:08:48;98051.53;;;24.09
79756;BMP280;69239;50.678;12.280;2023-06-04T10:12:01;98047.59;;;24.31
79756;BMP280;69239;50.678;12.280;2023-06-04T10:14:22;98041.66;;;24.58
79756;BMP280;69239;50.678;12.280;2023-06-04T10:16:50;98044.19;;;24.79
79756;BMP280;69239;50.678;12.280;2023-06-04T10:19:16;98045.38;;;24.78
79756;BMP280;69239;50.678;12.280;2023-06-04T10:21:43;98056.56;;;24.73
79756;BMP280;69239;50.678;12.280;2023-06-04T10:24:08;98045.66;;;24.87
79756;BMP280;69239;50.678;12.280;2023-06-04T10:26:34;98042.50;;;25.03
79756;BMP280;69239;50.678;12.280;2023-06-04T10:29:03;98042.44;;;25.06
79756;BMP280;69239;50.678;12.280;2023-06-04T10:31:32;98047.53;;;24.97
79756;BMP280;69239;50.678;12.280;2023-06-04T10:33:57;98033.47;;;24.72
79756;BMP280;69239;50.678;12.280;2023-06-04T10:36:23;98048.97;;;24.61
79756;BMP280;69239;50.678;12.280;2023-06-04T10:38:54;98046.66;;;24.59
79756;BMP280;69239;50.678;12.280;2023-06-04T10:41:20;98042.84;;;24.57
79756;BMP280;69239;50.678;12.280;2023-06-04T10:43:49;98045.16;;;24.55
79756;BMP280;69239;50.678;12.280;2023-06-04T10:46:17;98038.16;;;24.68
79756;BMP280;69239;50.678;12.280;2023-06-04T10:48:53;98037.25;;;24.85
79756;BMP280;69239;50.678;12.280;2023-06-04T10:51:32;98043.78;;;24.88
79756;BMP280;69239;50.678;12.280;2023-06-04T10:53:58;98033.88;;;24.74
79756;BMP280;69239;50.678;12.280;2023-06-04T10:56:27;98040.84;;;24.64
79756;BMP280;69239;50.678;12.280;2023-06-04T10:58:53;98035.09;;;24.62
79756;BMP280;69239;50.678;12.280;2023-06-04T11:01:25;98036.63;;;24.63
79756;BMP280;69239;50.678;12.280;2023-06-04T11:03:51;98043.53;;;24.68
79756;BMP280;69239;50.678;12.280;2023-06-04T11:06:17;98029.66;;;24.66
79756;BMP280;69239;50.678;12.280;2023-06-04T11:08:43;98041.09;;;24.84
79756;BMP280;69239;50.678;12.280;2023-06-04T11:11:12;98037.53;;;24.94
79756;BMP280;69239;50.678;12.280;2023-06-04T11:13:39;98034.06;;;24.97
79756;BMP280;69239;50.678;12.280;2023-06-04T11:16:17;98028.16;;;25.13
79756;BMP280;69239;50.678;12.280;2023-06-04T11:18:43;98031.44;;;25.31
79756;BMP280;69239;50.678;12.280;2023-06-04T11:21:08;98028.34;;;25.33
79756;BMP280;69239;50.678;12.280;2023-06-04T11:23:36;98024.47;;;25.34
79756;BMP280;69239;50.678;12.280;2023-06-04T11:26:02;98023.78;;;25.26
79756;BMP280;69239;50.678;12.280;2023-06-04T11:28:27;98022.34;;;25.15
79756;BMP280;69239;50.678;12.280;2023-06-04T11:31:02;98017.09;;;25.00
79756;BMP280;69239;50.678;12.280;2023-06-04T11:33:29;98016.34;;;24.96
79756;BMP280;69239;50.678;12.280;2023-06-04T11:35:54;98010.94;;;25.00
79756;BMP280;69239;50.678;12.280;2023-06-04T11:38:20;98021.25;;;25.08
79756;BMP280;69239;50.678;12.280;2023-06-04T11:40:56;98021.16;;;25.23
79756;BMP280;69239;50.678;12.280;2023-06-04T11:43:21;98019.44;;;25.36
79756;BMP280;69239;50.678;12.280;2023-06-04T11:45:46;98009.75;;;25.42
79756;BMP280;69239;50.678;12.280;2023-06-04T11:48:12;98011.22;;;25.50
79756;BMP280;69239;50.678;12.280;2023-06-04T11:50:37;98016.22;;;25.48
79756;BMP280;69239;50.678;12.280;2023-06-04T11:53:03;98012.41;;;25.45
79756;BMP280;69239;50.678;12.280;2023-06-04T11:55:28;98018.31;;;25.37
79756;BMP280;69239;50.678;12.280;2023-06-04T11:57:54;98016.06;;;25.28
79756;BMP280;69239;50.678;12.280;2023-06-04T12:00:20;98005.59;;;25.34
79756;BMP280;69239;50.678;12.280;2023-06-04T12:02:55;98018.06;;;25.58
79756;BMP280;69239;50.678;12.280;2023-06-04T12:05:22;98013.28;;;25.69
79756;BMP280;69239;50.678;12.280;2023-06-04T12:07:48;98011.50;;;25.89
79756;BMP280;69239;50.678;12.280;2023-06-04T12:10:19;98012.75;;;26.12
79756;BMP280;69239;50.678;12.280;2023-06-04T12:12:45;97992.47;;;26.27
79756;BMP280;69239;50.678;12.280;2023-06-04T12:15:12;98004.50;;;26.49
79756;BMP280;69239;50.678;12.280;2023-06-04T12:17:49;98004.16;;;26.70
79756;BMP280;69239;50.678;12.280;2023-06-04T12:20:14;98006.53;;;26.88
79756;BMP280;69239;50.678;12.280;2023-06-04T12:22:44;98001.66;;;26.80
79756;BMP280;69239;50.678;12.280;2023-06-04T12:25:10;98015.47;;;26.62
79756;BMP280;69239;50.678;12.280;2023-06-04T12:27:46;98004.72;;;26.35
79756;BMP280;69239;50.678;12.280;2023-06-04T12:30:12;98020.66;;;26.26
79756;BMP280;69239;50.678;12.280;2023-06-04T12:32:37;98017.25;;;26.22
79756;BMP280;69239;50.678;12.280;2023-06-04T12:35:03;98012.81;;;26.35
79756;BMP280;69239;50.678;12.280;2023-06-04T12:37:28;98009.06;;;26.52
79756;BMP280;69239;50.678;12.280;2023-06-04T12:39:54;98012.66;;;26.69
79756;BMP280;69239;50.678;12.280;2023-06-04T12:42:20;98013.56;;;26.86
79756;BMP280;69239;50.678;12.280;2023-06-04T12:44:45;98010.09;;;26.85
79756;BMP280;69239;50.678;12.280;2023-06-04T12:47:11;98018.13;;;26.89
79756;BMP280;69239;50.678;12.280;2023-06-04T12:49:37;98012.97;;;26.98
79756;BMP280;69239;50.678;12.280;2023-06-04T12:52:03;98003.66;;;27.19
79756;BMP280;69239;50.678;12.280;2023-06-04T12:54:28;98013.69;;;27.41
79756;BMP280;69239;50.678;12.280;2023-06-04T12:56:54;98000.53;;;27.60
79756;BMP280;69239;50.678;12.280;2023-06-04T12:59:21;98004.22;;;27.69
79756;BMP280;69239;50.678;12.280;2023-06-04T13:01:47;98011.03;;;27.58
79756;BMP280;69239;50.678;12.280;2023-06-04T13:04:12;98004.91;;;27.53
79756;BMP280;69239;50.678;12.280;2023-06-04T13:06:38;98004.00;;;27.60
79756;BMP280;69239;50.678;12.280;2023-06-04T13:09:05;98002.19;;;27.73
79756;BMP280;69239;50.678;12.280;2023-06-04T13:11:41;98001.44;;;27.73
79756;BMP280;69239;50.678;12.280;2023-06-04T13:14:06;98000.47;;;27.83
79756;BMP280;69239;50.678;12.280;2023-06-04T13:16:32;98000.47;;;27.99
79756;BMP280;69239;50.678;12.280;2023-06-04T13:18:57;98000.50;;;28.15
79756;BMP280;69239;50.678;12.280;2023-06-04T13:21:22;97999.81;;;28.27
79756;BMP280;69239;50.678;12.280;2023-06-04T13:23:48;98002.38;;;28.34
79756;BMP280;69239;50.678;12.280;2023-06-04T13:26:15;98001.09;;;28.23
79756;BMP280;69239;50.678;12.280;2023-06-04T13:32:01;97993.13;;;28.16
79756;BMP280;69239;50.678;12.280;2023-06-04T13:34:27;97998.31;;;28.10
79756;BMP280;69239;50.678;12.280;2023-06-04T13:36:53;97992.84;;;27.94
79756;BMP280;69239;50.678;12.280;2023-06-04T13:39:18;97997.78;;;27.63
79756;BMP280;69239;50.678;12.280;2023-06-04T13:41:43;97992.53;;;27.36
79756;BMP280;69239;50.678;12.280;2023-06-04T13:44:09;98001.34;;;27.21
79756;BMP280;69239;50.678;12.280;2023-06-04T13:46:34;97987.19;;;27.13
79756;BMP280;69239;50.678;12.280;2023-06-04T13:48:59;97979.88;;;27.10
79756;BMP280;69239;50.678;12.280;2023-06-04T13:51:25;97977.91;;;27.14
79756;BMP280;69239;50.678;12.280;2023-06-04T13:53:50;97976.41;;;27.09
79756;BMP280;69239;50.678;12.280;2023-06-04T13:56:18;97977.69;;;27.05
79756;BMP280;69239;50.678;12.280;2023-06-04T13:58:43;97975.81;;;27.02
79756;BMP280;69239;50.678;12.280;2023-06-04T14:01:09;97974.16;;;27.08
79756;BMP280;69239;50.678;12.280;2023-06-04T14:03:34;97980.13;;;27.19
79756;BMP280;69239;50.678;12.280;2023-06-04T14:05:59;97963.75;;;27.26
79756;BMP280;69239;50.678;12.280;2023-06-04T14:08:25;97964.59;;;27.23